Station Historical Data
Daily Summary for August 20, 2012 Units:  English    Metric   Both
« Previous Day
Next Day »
Daily Weekly Monthly Yearly Custom
  High: Low: Average:
Temperature: 82.4 °F 59.2 °F 71.3 °F
Dew Point: 64.5 °F 54.5 °F 58.5 °F
Humidity: 93% 42% 66%
Wind Speed: 8.0mph 0.0mph 1.3mph
Wind Gust: 9.0mph - -
Wind- - East
Pressure: 29.94 in 29.87 in -
Precipitation: 0.00 in    
Historical Graphs
 
 
Tabular Data for August 20, 2012
Time Temperature Dew Point Pressure Wind Wind Speed Wind Gust Humidity Rainfall Rate (Hourly) Conditions
00:00 63.4 °F 59.2 °F 29.87 in Calm     86% 0.00 in
00:05 63.0 °F 58.8 °F 29.88 in Calm     86% 0.00 in
00:10 62.6 °F 58.4 °F 29.88 in Calm     86% 0.00 in
00:15 62.7 °F 58.8 °F 29.88 in Calm     87% 0.00 in
00:20 62.6 °F 58.4 °F 29.88 in Calm     86% 0.00 in
00:25 62.4 °F 58.2 °F 29.88 in Calm     86% 0.00 in
00:30 62.2 °F 58.3 °F 29.88 in Calm     87% 0.00 in
00:35 62.2 °F 58.0 °F 29.88 in Calm     86% 0.00 in
00:40 62.3 °F 58.1 °F 29.88 in Calm     86% 0.00 in
00:45 62.0 °F 58.1 °F 29.88 in Calm     87% 0.00 in
00:50 61.8 °F 58.2 °F 29.88 in Calm     88% 0.00 in
00:55 61.7 °F 58.4 °F 29.88 in NNW 1.0 mph 1.0 mph 89% 0.00 in
01:00 61.4 °F 58.1 °F 29.88 in Calm   1.0 mph 89% 0.00 in
01:05 61.4 °F 58.1 °F 29.88 in NNW 1.0 mph 1.0 mph 89% 0.00 in
01:10 61.7 °F 58.1 °F 29.88 in Calm   1.0 mph 88% 0.00 in
01:15 62.0 °F 57.8 °F 29.88 in Calm     86% 0.00 in
01:20 62.2 °F 58.0 °F 29.88 in Calm   1.0 mph 86% 0.00 in
01:25 62.9 °F 58.0 °F 29.88 in North 1.0 mph 2.0 mph 84% 0.00 in
01:30 63.5 °F 57.6 °F 29.87 in NE 1.0 mph 2.0 mph 81% 0.00 in
01:35 64.1 °F 57.8 °F 29.88 in Calm   1.0 mph 80% 0.00 in
01:40 64.1 °F 57.5 °F 29.88 in Calm     79% 0.00 in
01:45 64.1 °F 57.5 °F 29.88 in North 1.0 mph 1.0 mph 79% 0.00 in
01:50 64.0 °F 57.4 °F 29.88 in Calm     79% 0.00 in
01:55 63.9 °F 57.3 °F 29.88 in NNE 1.0 mph 1.0 mph 79% 0.00 in
02:00 64.1 °F 57.1 °F 29.88 in Calm   1.0 mph 78% 0.00 in
02:05 64.2 °F 57.2 °F 29.88 in NNE 1.0 mph 1.0 mph 78% 0.00 in
02:10 64.6 °F 57.2 °F 29.88 in NE 1.0 mph 2.0 mph 77% 0.00 in
02:15 64.9 °F 57.2 °F 29.88 in NE 1.0 mph 2.0 mph 76% 0.00 in
02:20 65.0 °F 57.3 °F 29.88 in NE 1.0 mph 1.0 mph 76% 0.00 in
02:26 65.2 °F 57.1 °F 29.88 in Calm   1.0 mph 75% 0.00 in
02:31 65.2 °F 57.1 °F 29.88 in Calm   1.0 mph 75% 0.00 in
02:36 65.2 °F 56.7 °F 29.88 in Calm   2.0 mph 74% 0.00 in
02:41 64.9 °F 56.8 °F 29.88 in Calm     75% 0.00 in
02:46 64.4 °F 57.0 °F 29.88 in Calm   1.0 mph 77% 0.00 in
02:51 64.0 °F 57.0 °F 29.88 in Calm   1.0 mph 78% 0.00 in
02:56 64.0 °F 57.0 °F 29.88 in Calm   1.0 mph 78% 0.00 in
03:01 64.1 °F 56.8 °F 29.88 in Calm   1.0 mph 77% 0.00 in
03:06 64.0 °F 56.7 °F 29.88 in Calm   1.0 mph 77% 0.00 in
03:11 63.6 °F 56.6 °F 29.88 in Calm     78% 0.00 in
03:16 62.9 °F 57.0 °F 29.88 in Calm   1.0 mph 81% 0.00 in
03:21 62.4 °F 56.8 °F 29.88 in Calm   1.0 mph 82% 0.00 in
03:26 61.9 °F 57.0 °F 29.88 in Calm     84% 0.00 in
03:31 61.6 °F 56.7 °F 29.89 in Calm     84% 0.00 in
03:36 61.3 °F 56.4 °F 29.89 in Calm     84% 0.00 in
03:41 61.7 °F 56.5 °F 29.89 in Calm   1.0 mph 83% 0.00 in
03:46 62.7 °F 56.5 °F 29.89 in NE 1.0 mph 2.0 mph 80% 0.00 in
03:51 63.5 °F 56.2 °F 29.89 in Calm   2.0 mph 77% 0.00 in
03:56 63.6 °F 56.3 °F 29.89 in North 1.0 mph 1.0 mph 77% 0.00 in
04:01 63.6 °F 56.3 °F 29.88 in Calm   1.0 mph 77% 0.00 in
04:06 63.2 °F 56.2 °F 29.88 in Calm   1.0 mph 78% 0.00 in
04:11 62.8 °F 55.8 °F 29.88 in Calm   1.0 mph 78% 0.00 in
04:16 63.0 °F 56.0 °F 29.89 in Calm   1.0 mph 78% 0.00 in
04:21 63.2 °F 55.9 °F 29.89 in Calm   1.0 mph 77% 0.00 in
04:26 63.3 °F 56.0 °F 29.89 in NE 1.0 mph 2.0 mph 77% 0.00 in
04:31 63.5 °F 55.8 °F 29.89 in NE 1.0 mph 2.0 mph 76% 0.00 in
04:36 63.8 °F 55.7 °F 29.88 in NE 1.0 mph 2.0 mph 75% 0.00 in
04:41 64.0 °F 55.6 °F 29.88 in ENE 1.0 mph 3.0 mph 74% 0.00 in
04:46 64.4 °F 55.6 °F 29.88 in NE 2.0 mph 4.0 mph 73% 0.00 in
04:51 64.6 °F 55.8 °F 29.88 in NE 3.0 mph 3.0 mph 73% 0.00 in
04:56 64.4 °F 55.9 °F 29.89 in North 1.0 mph 2.0 mph 74% 0.00 in
05:01 64.2 °F 55.8 °F 29.89 in NNE 1.0 mph 1.0 mph 74% 0.00 in
05:06 64.0 °F 55.9 °F 29.89 in Calm   2.0 mph 75% 0.00 in
05:11 63.9 °F 55.8 °F 29.89 in Calm   1.0 mph 75% 0.00 in
05:16 63.2 °F 55.9 °F 29.89 in NNW 1.0 mph 1.0 mph 77% 0.00 in
05:21 62.4 °F 56.2 °F 29.89 in Calm   1.0 mph 80% 0.00 in
05:26 61.7 °F 56.5 °F 29.89 in Calm     83% 0.00 in
05:31 61.2 °F 56.7 °F 29.89 in Calm     85% 0.00 in
05:36 60.8 °F 55.9 °F 29.89 in NNE 1.0 mph 1.0 mph 84% 0.00 in
05:41 61.6 °F 55.7 °F 29.89 in NE 2.0 mph 2.0 mph 81% 0.00 in
05:46 62.6 °F 55.7 °F 29.89 in North 1.0 mph 2.0 mph 78% 0.00 in
05:51 63.2 °F 55.5 °F 29.89 in Calm   2.0 mph 76% 0.00 in
05:56 63.4 °F 55.7 °F 29.89 in Calm     76% 0.00 in
06:01 63.4 °F 55.7 °F 29.90 in Calm     76% 0.00 in
06:06 63.2 °F 56.2 °F 29.90 in Calm   1.0 mph 78% 0.00 in
06:11 62.6 °F 56.0 °F 29.90 in Calm   1.0 mph 79% 0.00 in
06:16 62.1 °F 55.9 °F 29.90 in Calm   1.0 mph 80% 0.00 in
06:21 62.1 °F 55.5 °F 29.90 in Calm     79% 0.00 in
06:26 62.4 °F 55.5 °F 29.91 in Calm   1.0 mph 78% 0.00 in
06:31 62.6 °F 55.3 °F 29.91 in Calm   1.0 mph 77% 0.00 in
06:36 62.5 °F 55.6 °F 29.91 in Calm   1.0 mph 78% 0.00 in
06:41 62.1 °F 55.5 °F 29.91 in Calm   1.0 mph 79% 0.00 in
06:46 61.4 °F 56.2 °F 29.91 in Calm   1.0 mph 83% 0.00 in
06:51 60.6 °F 56.1 °F 29.91 in Calm     85% 0.00 in
06:56 60.1 °F 55.9 °F 29.91 in Calm     86% 0.00 in
07:01 59.9 °F 56.0 °F 29.91 in Calm     87% 0.00 in
07:06 59.6 °F 56.4 °F 29.92 in Calm     89% 0.00 in
07:11 59.4 °F 56.5 °F 29.92 in Calm     90% 0.00 in
07:16 59.2 °F 56.3 °F 29.92 in Calm     90% 0.00 in
07:21 59.2 °F 56.6 °F 29.92 in Calm     91% 0.00 in
07:26 59.3 °F 56.4 °F 29.92 in Calm     90% 0.00 in
07:31 59.6 °F 56.7 °F 29.93 in Calm     90% 0.00 in
07:36 59.7 °F 56.8 °F 29.93 in Calm     90% 0.00 in
07:41 59.7 °F 56.8 °F 29.93 in Calm     90% 0.00 in
07:46 60.1 °F 57.2 °F 29.93 in Calm     90% 0.00 in
07:51 60.5 °F 56.6 °F 29.92 in Calm   1.0 mph 87% 0.00 in
07:56 61.0 °F 57.1 °F 29.92 in Calm   1.0 mph 87% 0.00 in
08:01 61.1 °F 57.5 °F 29.92 in NNE 1.0 mph 1.0 mph 88% 0.00 in
08:06 60.9 °F 58.0 °F 29.92 in NNW 1.0 mph 2.0 mph 90% 0.00 in
08:11 60.6 °F 58.0 °F 29.92 in NNW 1.0 mph 1.0 mph 91% 0.00 in
08:16 60.5 °F 58.2 °F 29.93 in NNW 1.0 mph 1.0 mph 92% 0.00 in
08:21 60.6 °F 58.3 °F 29.93 in NNW 1.0 mph 1.0 mph 92% 0.00 in
08:26 60.8 °F 58.5 °F 29.93 in NNW 1.0 mph 1.0 mph 92% 0.00 in
08:31 61.3 °F 59.3 °F 29.93 in Calm   1.0 mph 93% 0.00 in
08:36 62.0 °F 60.0 °F 29.93 in NNE 1.0 mph 2.0 mph 93% 0.00 in
08:41 63.4 °F 59.2 °F 29.93 in Calm   1.0 mph 86% 0.00 in
08:46 64.5 °F 59.2 °F 29.93 in North 1.0 mph 2.0 mph 83% 0.00 in
08:51 65.0 °F 59.7 °F 29.93 in Calm   1.0 mph 83% 0.00 in
08:56 65.8 °F 58.8 °F 29.93 in Calm   2.0 mph 78% 0.00 in
09:01 66.7 °F 58.9 °F 29.93 in Calm   2.0 mph 76% 0.00 in
09:06 68.3 °F 60.8 °F 29.93 in Calm     77% 0.00 in
09:11 69.6 °F 59.8 °F 29.93 in Calm   2.0 mph 71% 0.00 in
09:16 69.8 °F 58.8 °F 29.93 in East 1.0 mph 3.0 mph 68% 0.00 in
09:22 69.8 °F 59.2 °F 29.93 in ENE 3.0 mph 3.0 mph 69% 0.00 in
09:27 70.4 °F 60.2 °F 29.93 in ENE 3.0 mph 3.0 mph 70% 0.00 in
09:32 70.8 °F 58.9 °F 29.93 in ENE 1.0 mph 4.0 mph 66% 0.00 in
09:37 71.5 °F 59.6 °F 29.93 in NE 2.0 mph 3.0 mph 66% 0.00 in
09:42 72.0 °F 59.6 °F 29.93 in ENE 1.0 mph 3.0 mph 65% 0.00 in
09:47 72.2 °F 58.5 °F 29.93 in ENE 1.0 mph 4.0 mph 62% 0.00 in
09:52 72.3 °F 59.5 °F 29.93 in ENE 2.0 mph 5.0 mph 64% 0.00 in
09:57 72.3 °F 59.0 °F 29.93 in ENE 2.0 mph 4.0 mph 63% 0.00 in
10:02 72.7 °F 59.8 °F 29.93 in ENE 1.0 mph 5.0 mph 64% 0.00 in
10:07 73.3 °F 60.4 °F 29.93 in NE 3.0 mph 4.0 mph 64% 0.00 in
10:12 73.1 °F 59.3 °F 29.93 in NE 3.0 mph 4.0 mph 62% 0.00 in
10:17 72.8 °F 59.0 °F 29.93 in NE 4.0 mph 4.0 mph 62% 0.00 in
10:22 73.0 °F 60.1 °F 29.93 in ENE 2.0 mph 4.0 mph 64% 0.00 in
10:27 73.2 °F 58.5 °F 29.93 in NE 3.0 mph 6.0 mph 60% 0.00 in
10:32 73.5 °F 58.3 °F 29.93 in ENE 3.0 mph 5.0 mph 59% 0.00 in
10:37 73.7 °F 58.5 °F 29.93 in East 1.0 mph 5.0 mph 59% 0.00 in
10:42 74.0 °F 58.8 °F 29.93 in NNE 6.0 mph 6.0 mph 59% 0.00 in
10:47 74.3 °F 59.5 °F 29.93 in ENE 1.0 mph 5.0 mph 60% 0.00 in
10:52 74.6 °F 58.4 °F 29.93 in NE 1.0 mph 6.0 mph 57% 0.00 in
10:57 74.8 °F 57.6 °F 29.93 in East 2.0 mph 6.0 mph 55% 0.00 in
11:02 75.2 °F 59.9 °F 29.94 in NE 2.0 mph 4.0 mph 59% 0.00 in
11:07 75.5 °F 60.7 °F 29.94 in NNE 2.0 mph 5.0 mph 60% 0.00 in
11:12 75.9 °F 60.1 °F 29.93 in ENE 1.0 mph 5.0 mph 58% 0.00 in
11:17 76.2 °F 57.8 °F 29.93 in NE 3.0 mph 7.0 mph 53% 0.00 in
11:22 76.3 °F 58.5 °F 29.93 in East 1.0 mph 4.0 mph 54% 0.00 in
11:27 76.7 °F 60.8 °F 29.94 in NNW 3.0 mph 5.0 mph 58% 0.00 in
11:32 76.9 °F 57.4 °F 29.93 in ENE 5.0 mph 6.0 mph 51% 0.00 in
11:37 77.2 °F 60.3 °F 29.93 in North 4.0 mph 5.0 mph 56% 0.00 in
11:42 77.2 °F 59.3 °F 29.93 in NNE 1.0 mph 4.0 mph 54% 0.00 in
11:47 77.6 °F 60.2 °F 29.93 in NE 2.0 mph 5.0 mph 55% 0.00 in
11:52 77.9 °F 59.4 °F 29.93 in NNE 3.0 mph 6.0 mph 53% 0.00 in
11:57 77.7 °F 55.9 °F 29.93 in NE 3.0 mph 7.0 mph 47% 0.00 in
12:02 77.8 °F 57.7 °F 29.93 in ENE 4.0 mph 6.0 mph 50% 0.00 in
12:07 78.0 °F 59.0 °F 29.93 in ENE 5.0 mph 6.0 mph 52% 0.00 in
12:12 78.1 °F 56.8 °F 29.93 in WNW 1.0 mph 4.0 mph 48% 0.00 in
12:17 78.6 °F 57.3 °F 29.93 in NE 2.0 mph 7.0 mph 48% 0.00 in
12:22 78.6 °F 56.1 °F 29.93 in North 4.0 mph 8.0 mph 46% 0.00 in
12:27 78.6 °F 56.7 °F 29.92 in NNW 3.0 mph 6.0 mph 47% 0.00 in
12:32 78.7 °F 56.2 °F 29.92 in ENE 2.0 mph 7.0 mph 46% 0.00 in
12:37 79.1 °F 57.8 °F 29.92 in NE 4.0 mph 4.0 mph 48% 0.00 in
12:42 79.2 °F 57.8 °F 29.92 in NE 6.0 mph 6.0 mph 48% 0.00 in
12:47 79.0 °F 55.9 °F 29.92 in NW 1.0 mph 6.0 mph 45% 0.00 in
12:52 79.2 °F 56.0 °F 29.92 in NE 5.0 mph 7.0 mph 45% 0.00 in
12:57 78.9 °F 54.5 °F 29.91 in NE 2.0 mph 7.0 mph 43% 0.00 in
13:02 79.1 °F 56.6 °F 29.91 in NE 2.0 mph 4.0 mph 46% 0.00 in
13:07 79.5 °F 57.5 °F 29.91 in NNE 2.0 mph 6.0 mph 47% 0.00 in
13:12 79.8 °F 56.6 °F 29.91 in East 2.0 mph 3.0 mph 45% 0.00 in
13:17 79.7 °F 57.1 °F 29.92 in WNW 1.0 mph 9.0 mph 46% 0.00 in
13:22 79.7 °F 55.9 °F 29.91 in NNE 6.0 mph 6.0 mph 44% 0.00 in
13:27 79.6 °F 57.0 °F 29.91 in ENE 8.0 mph 8.0 mph 46% 0.00 in
13:32 79.5 °F 56.9 °F 29.92 in NE 3.0 mph 8.0 mph 46% 0.00 in
13:38 79.4 °F 55.6 °F 29.92 in NE 3.0 mph 5.0 mph 44% 0.00 in
13:43 79.4 °F 56.8 °F 29.92 in NE 3.0 mph 6.0 mph 46% 0.00 in
13:48 79.7 °F 58.9 °F 29.92 in NE 2.0 mph 4.0 mph 49% 0.00 in
13:53 79.9 °F 58.5 °F 29.92 in ENE 4.0 mph 5.0 mph 48% 0.00 in
13:58 79.9 °F 59.6 °F 29.92 in ENE 3.0 mph 6.0 mph 50% 0.00 in
14:03 79.9 °F 60.7 °F 29.92 in ESE 4.0 mph 6.0 mph 52% 0.00 in
14:08 80.2 °F 58.2 °F 29.92 in East 6.0 mph 8.0 mph 47% 0.00 in
14:13 80.1 °F 57.5 °F 29.92 in NNE 4.0 mph 5.0 mph 46% 0.00 in
14:18 80.1 °F 58.7 °F 29.92 in NNW 3.0 mph 6.0 mph 48% 0.00 in
14:23 80.1 °F 58.7 °F 29.92 in NNW 3.0 mph 7.0 mph 48% 0.00 in
14:28 80.4 °F 57.1 °F 29.92 in NE 3.0 mph 6.0 mph 45% 0.00 in
14:33 80.7 °F 58.0 °F 29.91 in SE 3.0 mph 3.0 mph 46% 0.00 in
14:38 81.1 °F 59.0 °F 29.91 in NNE 4.0 mph 8.0 mph 47% 0.00 in
14:43 80.6 °F 56.7 °F 29.91 in NNE 3.0 mph 8.0 mph 44% 0.00 in
14:48 80.7 °F 60.9 °F 29.91 in NE 2.0 mph 5.0 mph 51% 0.00 in
14:53 80.7 °F 58.6 °F 29.91 in WNW 1.0 mph 4.0 mph 47% 0.00 in
14:58 80.9 °F 58.2 °F 29.91 in East 3.0 mph 6.0 mph 46% 0.00 in
15:03 80.9 °F 59.4 °F 29.91 in Calm   4.0 mph 48% 0.00 in
15:08 81.0 °F 59.5 °F 29.91 in ESE 3.0 mph 6.0 mph 48% 0.00 in
15:13 80.8 °F 59.3 °F 29.91 in NE 2.0 mph 7.0 mph 48% 0.00 in
15:18 80.8 °F 58.7 °F 29.91 in NNW 3.0 mph 6.0 mph 47% 0.00 in
15:23 80.9 °F 58.2 °F 29.91 in East 1.0 mph 5.0 mph 46% 0.00 in
15:28 81.2 °F 57.9 °F 29.91 in ESE 1.0 mph 6.0 mph 45% 0.00 in
15:33 81.9 °F 63.6 °F 29.91 in NNW 2.0 mph 2.0 mph 54% 0.00 in
15:38 82.4 °F 61.3 °F 29.91 in NNW 2.0 mph 5.0 mph 49% 0.00 in
15:43 82.2 °F 59.4 °F 29.91 in NE 2.0 mph 6.0 mph 46% 0.00 in
15:48 81.7 °F 58.9 °F 29.90 in NNE 2.0 mph 4.0 mph 46% 0.00 in
15:53 81.4 °F 60.4 °F 29.90 in North 1.0 mph 2.0 mph 49% 0.00 in
15:58 81.4 °F 58.0 °F 29.90 in East 5.0 mph 5.0 mph 45% 0.00 in
16:03 81.0 °F 58.9 °F 29.90 in NE 3.0 mph 4.0 mph 47% 0.00 in
16:08 80.4 °F 56.5 °F 29.90 in North 1.0 mph 3.0 mph 44% 0.00 in
16:13 79.8 °F 59.0 °F 29.90 in North 1.0 mph 3.0 mph 49% 0.00 in
16:18 79.7 °F 59.4 °F 29.90 in Calm   1.0 mph 50% 0.00 in
16:23 80.2 °F 58.8 °F 29.90 in NE 4.0 mph 4.0 mph 48% 0.00 in
16:28 80.9 °F 58.8 °F 29.90 in North 2.0 mph 3.0 mph 47% 0.00 in
16:33 81.6 °F 57.6 °F 29.90 in Calm   2.0 mph 44% 0.00 in
16:38 81.8 °F 57.8 °F 29.90 in NE 3.0 mph 3.0 mph 44% 0.00 in
16:43 81.9 °F 59.1 °F 29.90 in NNW 2.0 mph 4.0 mph 46% 0.00 in
16:48 82.0 °F 58.6 °F 29.90 in NNW 2.0 mph 3.0 mph 45% 0.00 in
16:53 82.3 °F 56.9 °F 29.90 in ENE 1.0 mph 1.0 mph 42% 0.00 in
16:58 81.9 °F 57.9 °F 29.90 in NNE 3.0 mph 3.0 mph 44% 0.00 in
17:03 81.2 °F 59.1 °F 29.90 in NNW 2.0 mph 3.0 mph 47% 0.00 in
17:08 80.7 °F 58.6 °F 29.90 in North 1.0 mph 2.0 mph 47% 0.00 in
17:13 80.4 °F 57.8 °F 29.90 in NNE 2.0 mph 3.0 mph 46% 0.00 in
17:18 80.6 °F 61.4 °F 29.90 in NNE 2.0 mph 3.0 mph 52% 0.00 in
17:23 80.7 °F 59.2 °F 29.90 in NE 3.0 mph 4.0 mph 48% 0.00 in
17:28 81.0 °F 58.9 °F 29.90 in ENE 2.0 mph 3.0 mph 47% 0.00 in
17:33 81.4 °F 61.0 °F 29.90 in Calm   3.0 mph 50% 0.00 in
17:38 81.8 °F 60.8 °F 29.90 in Calm   2.0 mph 49% 0.00 in
17:44 81.9 °F 62.0 °F 29.90 in NE 3.0 mph 3.0 mph 51% 0.00 in
17:49 81.8 °F 59.0 °F 29.90 in East 1.0 mph 2.0 mph 46% 0.00 in
17:54 81.7 °F 58.9 °F 29.89 in ESE 3.0 mph 4.0 mph 46% 0.00 in
17:59 81.3 °F 58.0 °F 29.89 in ESE 3.0 mph 4.0 mph 45% 0.00 in
18:04 81.1 °F 58.4 °F 29.89 in SSE 2.0 mph 2.0 mph 46% 0.00 in
18:09 81.6 °F 58.8 °F 29.89 in SE 2.0 mph 3.0 mph 46% 0.00 in
18:14 82.1 °F 60.5 °F 29.89 in Calm   1.0 mph 48% 0.00 in
18:19 82.1 °F 58.7 °F 29.89 in East 1.0 mph 2.0 mph 45% 0.00 in
18:24 82.0 °F 58.0 °F 29.89 in East 1.0 mph 2.0 mph 44% 0.00 in
18:29 82.3 °F 58.9 °F 29.89 in Calm   2.0 mph 45% 0.00 in
18:34 82.2 °F 58.1 °F 29.89 in ENE 2.0 mph 2.0 mph 44% 0.00 in
18:39 81.9 °F 57.9 °F 29.89 in SE 1.0 mph 1.0 mph 44% 0.00 in
18:44 82.0 °F 58.6 °F 29.88 in ENE 3.0 mph 5.0 mph 45% 0.00 in
18:49 81.2 °F 57.9 °F 29.89 in NE 2.0 mph 5.0 mph 45% 0.00 in
18:54 81.0 °F 58.3 °F 29.88 in ENE 2.0 mph 2.0 mph 46% 0.00 in
18:59 81.1 °F 60.2 °F 29.88 in Calm   3.0 mph 49% 0.00 in
19:04 81.0 °F 60.1 °F 29.88 in NE 2.0 mph 3.0 mph 49% 0.00 in
19:09 80.7 °F 59.8 °F 29.89 in NE 2.0 mph 2.0 mph 49% 0.00 in
19:14 80.4 °F 58.9 °F 29.89 in ENE 1.0 mph 3.0 mph 48% 0.00 in
19:19 80.3 °F 60.0 °F 29.89 in NE 1.0 mph 2.0 mph 50% 0.00 in
19:24 80.1 °F 59.8 °F 29.89 in NE 1.0 mph 2.0 mph 50% 0.00 in
19:29 79.9 °F 60.2 °F 29.89 in NE 1.0 mph 2.0 mph 51% 0.00 in
19:34 79.8 °F 60.1 °F 29.89 in NE 1.0 mph 2.0 mph 51% 0.00 in
19:39 79.7 °F 60.5 °F 29.89 in NE 1.0 mph 1.0 mph 52% 0.00 in
19:44 79.6 °F 61.5 °F 29.90 in NE 1.0 mph 1.0 mph 54% 0.00 in
19:49 79.5 °F 60.9 °F 29.89 in Calm   1.0 mph 53% 0.00 in
19:54 79.3 °F 59.6 °F 29.89 in Calm   1.0 mph 51% 0.00 in
19:59 79.1 °F 59.4 °F 29.89 in East 1.0 mph 1.0 mph 51% 0.00 in
20:04 78.5 °F 60.0 °F 29.89 in Calm   1.0 mph 53% 0.00 in
20:09 77.9 °F 62.0 °F 29.89 in Calm     58% 0.00 in
20:14 77.2 °F 64.5 °F 29.89 in Calm     65% 0.00 in
20:19 75.9 °F 64.2 °F 29.89 in Calm     67% 0.00 in
20:24 74.9 °F 62.8 °F 29.89 in Calm     66% 0.00 in
20:29 74.1 °F 62.0 °F 29.90 in Calm     66% 0.00 in
20:34 73.4 °F 61.4 °F 29.90 in Calm     66% 0.00 in
20:39 72.8 °F 61.2 °F 29.90 in Calm   1.0 mph 67% 0.00 in
20:44 72.4 °F 61.2 °F 29.90 in NE 1.0 mph 1.0 mph 68% 0.00 in
20:49 71.8 °F 62.7 °F 29.90 in Calm   2.0 mph 73% 0.00 in
20:54 70.9 °F 62.6 °F 29.90 in Calm   1.0 mph 75% 0.00 in
20:59 70.4 °F 62.8 °F 29.90 in Calm   1.0 mph 77% 0.00 in
21:04 70.7 °F 63.1 °F 29.90 in Calm   1.0 mph 77% 0.00 in
21:09 70.7 °F 63.1 °F 29.90 in North 1.0 mph 1.0 mph 77% 0.00 in
21:14 70.2 °F 63.0 °F 29.90 in Calm     78% 0.00 in
21:19 69.7 °F 63.3 °F 29.91 in North 1.0 mph 1.0 mph 80% 0.00 in
21:24 69.1 °F 63.4 °F 29.91 in Calm   1.0 mph 82% 0.00 in
21:29 68.5 °F 63.5 °F 29.91 in North 1.0 mph 1.0 mph 84% 0.00 in
21:34 68.1 °F 63.4 °F 29.91 in Calm   1.0 mph 85% 0.00 in
21:39 67.9 °F 63.6 °F 29.91 in Calm   1.0 mph 86% 0.00 in
21:44 67.6 °F 63.3 °F 29.92 in North 1.0 mph 1.0 mph 86% 0.00 in
21:49 67.7 °F 62.4 °F 29.92 in Calm   1.0 mph 83% 0.00 in
21:54 68.5 °F 61.4 °F 29.92 in ENE 1.0 mph 1.0 mph 78% 0.00 in
21:59 69.3 °F 61.0 °F 29.92 in NNE 1.0 mph 1.0 mph 75% 0.00 in
22:04 70.1 °F 61.0 °F 29.92 in NNE 2.0 mph 2.0 mph 73% 0.00 in
22:09 70.4 °F 61.0 °F 29.93 in NE 1.0 mph 2.0 mph 72% 0.00 in
22:14 70.5 °F 61.0 °F 29.93 in NNE 1.0 mph 2.0 mph 72% 0.00 in
22:19 70.4 °F 61.0 °F 29.93 in NNE 1.0 mph 2.0 mph 72% 0.00 in
22:24 70.2 °F 60.8 °F 29.93 in Calm   1.0 mph 72% 0.00 in
22:29 69.9 °F 60.9 °F 29.93 in Calm     73% 0.00 in
22:34 69.5 °F 60.9 °F 29.93 in North 1.0 mph 1.0 mph 74% 0.00 in
22:39 69.1 °F 60.8 °F 29.93 in NNE 1.0 mph 1.0 mph 75% 0.00 in
22:44 69.0 °F 60.8 °F 29.93 in Calm   1.0 mph 75% 0.00 in
22:49 69.3 °F 60.7 °F 29.94 in NE 2.0 mph 3.0 mph 74% 0.00 in
22:54 69.6 °F 60.6 °F 29.94 in ENE 2.0 mph 3.0 mph 73% 0.00 in
23:00 69.7 °F 60.7 °F 29.94 in NE 2.0 mph 3.0 mph 73% 0.00 in
23:05 69.6 °F 60.6 °F 29.94 in Calm   2.0 mph 73% 0.00 in
23:10 69.6 °F 60.2 °F 29.94 in NNE 3.0 mph 3.0 mph 72% 0.00 in
23:15 69.6 °F 60.2 °F 29.94 in NE 2.0 mph 3.0 mph 72% 0.00 in
23:20 69.6 °F 60.2 °F 29.94 in NNE 2.0 mph 4.0 mph 72% 0.00 in
23:25 69.5 °F 60.1 °F 29.94 in NE 1.0 mph 3.0 mph 72% 0.00 in
23:30 69.4 °F 60.0 °F 29.94 in Calm   3.0 mph 72% 0.00 in
23:35 69.3 °F 59.5 °F 29.94 in NE 1.0 mph 2.0 mph 71% 0.00 in
23:40 69.2 °F 59.8 °F 29.94 in NE 1.0 mph 2.0 mph 72% 0.00 in
23:45 69.0 °F 59.6 °F 29.94 in NE 1.0 mph 2.0 mph 72% 0.00 in
23:50 69.0 °F 59.2 °F 29.94 in NE 1.0 mph 2.0 mph 71% 0.00 in
23:55 69.1 °F 59.3 °F 29.94 in NE 2.0 mph 3.0 mph 71% 0.00 in
Compliments of Weather Underground